Time;durP1;ratioP1;P1;durP2;ratioP2;P2;SDS_P1;SDS_P2;PMS_P1;PMS_P2;Temp;Humidity;BMP_temperature;BMP_pressure;BME280_temperature;BME280_humidity;BME280_pressure;Samples;Min_cycle;Max_cycle;Signal;HPM_P1;HPM_P2
2022/06/19 00:01:56;;;;;;;4.63;0.73;;;;;;;17.16;53.21;101155.28;5054050;27;96821;-33
2022/06/19 00:04:22;;;;;;;5.47;0.52;;;;;;;17.19;53.42;101149.53;5054478;27;96873;-33
2022/06/19 00:06:47;;;;;;;4.32;1.10;;;;;;;17.11;53.65;101142.97;5055676;27;97961;-33
2022/06/19 00:09:13;;;;;;;3.13;1.00;;;;;;;17.12;54.11;101136.50;5055373;27;99233;-33
2022/06/19 00:11:39;;;;;;;2.78;0.40;;;;;;;17.12;54.02;101128.31;5054392;27;96465;-33
2022/06/19 00:14:06;;;;;;;2.03;0.70;;;;;;;17.06;54.35;101121.47;5054598;27;96895;-33
2022/06/19 00:16:32;;;;;;;2.60;0.55;;;;;;;17.05;54.22;101127.94;5055183;27;98946;-33
2022/06/19 00:18:57;;;;;;;5.32;0.80;;;;;;;17.04;54.79;101122.59;5053824;27;101174;-33
2022/06/19 00:21:22;;;;;;;4.35;0.93;;;;;;;16.96;54.54;101158.81;5055186;27;96509;-33
2022/06/19 00:23:48;;;;;;;3.05;0.98;;;;;;;17.06;54.70;101230.09;5055436;27;96816;-33
2022/06/19 00:26:14;;;;;;;4.28;1.27;;;;;;;17.03;54.49;101274.13;5055270;27;107480;-33
2022/06/19 00:28:40;;;;;;;0.65;0.30;;;;;;;17.11;53.97;101307.22;5053729;27;101213;-33
2022/06/19 00:31:07;;;;;;;2.10;0.57;;;;;;;17.14;53.46;101317.94;5054073;27;96678;-33
2022/06/19 00:33:32;;;;;;;5.32;0.63;;;;;;;17.13;52.95;101324.38;5055657;27;96771;-33
2022/06/19 00:35:58;;;;;;;3.35;0.70;;;;;;;17.13;53.35;101310.69;5055354;27;97473;-33
2022/06/19 00:38:23;;;;;;;4.97;1.08;;;;;;;17.01;53.28;101279.72;5055733;27;97208;-33
2022/06/19 00:40:48;;;;;;;1.83;0.70;;;;;;;17.09;53.19;101262.66;5055167;27;96419;-33
2022/06/19 00:43:14;;;;;;;1.02;0.43;;;;;;;17.09;53.23;101248.97;5055149;27;96788;-33
2022/06/19 00:45:49;;;;;;;3.70;1.00;;;;;;;17.08;53.58;101237.16;5054417;27;99372;-33
2022/06/19 00:48:28;;;;;;;5.20;0.55;;;;;;;17.06;53.82;101257.44;5053688;27;101050;-33
2022/06/19 00:50:55;;;;;;;1.95;0.50;;;;;;;16.95;53.87;101261.09;5055831;27;96469;-33
2022/06/19 00:53:29;;;;;;;2.25;0.45;;;;;;;16.97;54.30;101287.34;5054855;27;96783;-33
2022/06/19 00:55:56;;;;;;;3.25;0.95;;;;;;;16.93;54.42;101283.09;5055404;27;97381;-33
2022/06/19 00:58:49;;;;;;;3.03;0.80;;;;;;;17.00;54.83;101288.94;5053305;27;101327;-33
2022/06/19 01:01:19;;;;;;;2.90;0.50;;;;;;;16.86;54.69;101273.66;5051190;27;96820;-33
2022/06/19 01:04:01;;;;;;;3.67;0.60;;;;;;;16.88;55.18;101284.47;5053910;27;96832;-33
2022/06/19 01:06:27;;;;;;;1.80;0.55;;;;;;;16.88;55.15;101277.13;5053252;27;101012;-33
2022/06/19 01:08:55;;;;;;;2.47;0.45;;;;;;;16.87;55.20;101286.31;5054683;27;97811;-33
2022/06/19 01:11:22;;;;;;;3.15;0.82;;;;;;;16.80;55.17;101274.13;5053080;27;96560;-33
2022/06/19 01:13:49;;;;;;;10.02;1.00;;;;;;;16.65;54.58;101269.88;5053501;27;96728;-33
2022/06/19 01:16:14;;;;;;;2.95;0.65;;;;;;;16.62;54.78;101287.41;5052986;27;100886;-33
2022/06/19 01:18:52;;;;;;;2.58;0.98;;;;;;;16.50;54.01;101289.25;5054453;27;99236;-33
2022/06/19 01:21:29;;;;;;;7.63;0.55;;;;;;;16.54;54.35;101300.81;5054931;27;96740;-33
2022/06/19 01:24:14;;;;;;;2.00;0.73;;;;;;;16.45;54.08;101283.28;5055225;27;96819;-33
2022/06/19 01:26:44;;;;;;;5.65;0.70;;;;;;;16.43;54.20;101300.81;5057959;27;97563;-33
2022/06/19 01:29:10;;;;;;;0.95;0.43;;;;;;;16.44;54.30;101278.78;5056951;27;101395;-33
2022/06/19 01:31:42;;;;;;;3.75;0.65;;;;;;;16.44;54.34;101267.00;5058418;27;96691;-33
2022/06/19 01:34:31;;;;;;;3.75;0.52;;;;;;;16.40;54.07;101265.47;5040684;27;96952;-33
2022/06/19 01:37:03;;;;;;;2.35;0.50;;;;;;;16.36;53.84;101251.19;5057451;27;99392;-33
2022/06/19 01:39:37;;;;;;;1.27;0.52;;;;;;;16.37;53.96;101255.66;5056425;27;100658;-33
2022/06/19 01:42:03;;;;;;;1.80;0.55;;;;;;;16.41;53.91;101257.16;5056614;27;96570;-33
2022/06/19 01:44:30;;;;;;;0.93;0.35;;;;;;;16.44;53.71;101273.31;5056623;27;96889;-33
2022/06/19 01:46:56;;;;;;;1.35;0.32;;;;;;;16.42;53.22;101290.84;5056185;27;104452;-33
2022/06/19 01:49:22;;;;;;;1.13;0.40;;;;;;;16.42;53.55;101318.19;5056233;27;101204;-33
2022/06/19 01:51:49;;;;;;;1.60;0.63;;;;;;;16.43;53.39;101341.81;5056493;27;96820;-33
2022/06/19 01:54:20;;;;;;;3.78;0.50;;;;;;;16.38;53.50;101331.25;5057014;27;96917;-33
2022/06/19 01:56:46;;;;;;;4.05;0.68;;;;;;;16.42;53.57;101326.41;5056193;27;100430;-33
2022/06/19 01:59:12;;;;;;;6.63;0.60;;;;;;;16.37;53.71;101304.88;5056178;27;99887;-33
2022/06/19 02:01:39;;;;;;;4.43;0.45;;;;;;;16.34;53.87;101284.13;5055201;27;96764;-33
2022/06/19 02:04:06;;;;;;;2.10;0.57;;;;;;;16.26;54.03;101283.88;5056416;27;96986;-33
2022/06/19 02:06:40;;;;;;;1.17;0.55;;;;;;;16.29;53.94;101288.22;5056123;27;100844;-33
2022/06/19 02:09:07;;;;;;;5.07;0.40;;;;;;;16.36;54.47;101308.63;5057368;27;98280;-33
2022/06/19 02:11:34;;;;;;;5.80;0.40;;;;;;;16.29;54.05;101300.03;5056271;27;96686;-33
2022/06/19 02:14:02;;;;;;;6.07;0.60;;;;;;;16.27;54.05;101298.41;5056185;27;96796;-33
2022/06/19 02:16:28;;;;;;;1.42;0.28;;;;;;;16.28;54.02;101360.28;5055747;27;101119;-33
2022/06/19 02:18:54;;;;;;;4.57;0.70;;;;;;;16.32;54.31;101457.47;5057428;27;97803;-33
2022/06/19 02:21:32;;;;;;;2.05;0.50;;;;;;;16.34;54.42;101491.91;5056307;27;96631;-33
2022/06/19 02:23:58;;;;;;;7.00;0.75;;;;;;;16.33;54.45;101423.69;5056231;27;96612;-33
2022/06/19 02:26:23;;;;;;;5.57;0.98;;;;;;;16.33;55.22;101358.09;5056768;27;98375;-33
2022/06/19 02:28:50;;;;;;;4.00;1.10;;;;;;;16.33;55.02;101331.59;5057237;27;97312;-33
2022/06/19 02:31:16;;;;;;;5.70;0.50;;;;;;;16.34;54.38;101294.19;5055857;27;96763;-33
2022/06/19 02:33:52;;;;;;;4.57;0.55;;;;;;;16.31;54.23;101262.50;5055588;27;96800;-33
2022/06/19 02:36:41;;;;;;;0.47;0.28;;;;;;;16.24;53.46;101246.72;5055927;27;99247;-33
2022/06/19 02:39:20;;;;;;;2.65;0.47;;;;;;;16.25;53.17;101251.16;5056569;27;99180;-33
2022/06/19 02:41:56;;;;;;;1.42;0.30;;;;;;;16.23;53.46;101245.84;5055612;27;96805;-33
2022/06/19 02:44:22;;;;;;;4.65;0.88;;;;;;;16.23;53.21;101250.41;5056215;27;96742;-33
2022/06/19 02:46:47;;;;;;;5.85;0.93;;;;;;;16.16;53.74;101228.19;5056864;27;97916;-33
2022/06/19 02:49:12;;;;;;;3.83;0.70;;;;;;;16.17;53.03;101191.66;5056652;27;99156;-33
2022/06/19 02:51:38;;;;;;;7.97;0.65;;;;;;;16.07;53.44;101117.72;5056422;27;96458;-33
2022/06/19 02:54:03;;;;;;;4.68;0.55;;;;;;;16.02;53.77;101057.13;5057147;27;96808;-33
2022/06/19 02:56:28;;;;;;;5.18;0.88;;;;;;;15.95;54.37;101033.16;5056923;27;97425;-33
2022/06/19 02:58:54;;;;;;;5.40;0.68;;;;;;;15.89;53.79;101038.09;5056648;27;97824;-33
2022/06/19 03:01:19;;;;;;;2.85;0.47;;;;;;;15.82;54.04;101019.63;5056707;27;96409;-33
2022/06/19 03:03:50;;;;;;;1.73;0.50;;;;;;;15.80;54.27;101037.97;5057075;27;96814;-33
2022/06/19 03:06:15;;;;;;;3.30;0.53;;;;;;;15.81;54.68;101037.88;5056557;27;99254;-33
2022/06/19 03:08:41;;;;;;;3.33;0.32;;;;;;;15.76;54.53;101022.84;5056732;27;100108;-33
2022/06/19 03:11:07;;;;;;;3.55;0.55;;;;;;;15.76;54.66;101020.13;5056706;27;96428;-33
2022/06/19 03:13:32;;;;;;;2.20;0.47;;;;;;;15.75;54.57;101029.28;5056926;27;96746;-33
2022/06/19 03:16:07;;;;;;;4.57;0.70;;;;;;;15.84;54.83;101042.22;5055716;27;99394;-33
2022/06/19 03:18:34;;;;;;;3.05;0.75;;;;;;;15.86;54.74;101053.88;5054975;27;99972;-33
2022/06/19 03:21:00;;;;;;;2.25;0.40;;;;;;;15.91;55.38;101089.91;5055177;27;96667;-33
2022/06/19 03:23:26;;;;;;;7.03;0.60;;;;;;;15.93;54.93;101110.63;5055035;27;96865;-33
2022/06/19 03:25:52;;;;;;;1.42;0.60;;;;;;;15.98;54.93;101129.41;5056588;27;97838;-33
2022/06/19 03:28:17;;;;;;;3.67;0.70;;;;;;;15.98;55.40;101131.28;5054627;27;100994;-33
2022/06/19 03:30:43;;;;;;;9.15;1.00;;;;;;;15.88;56.42;101106.53;5056514;27;96583;-33
2022/06/19 03:33:08;;;;;;;2.30;0.50;;;;;;;15.89;56.27;101094.63;5057006;27;96806;-33
2022/06/19 03:35:34;;;;;;;1.83;0.43;;;;;;;15.90;55.88;101110.03;5055860;27;103381;-33
2022/06/19 03:38:11;;;;;;;3.28;0.65;;;;;;;15.98;55.92;101151.25;5055580;27;97540;-32
2022/06/19 03:40:36;;;;;;;2.35;0.40;;;;;;;16.06;55.48;101142.44;5055825;27;96405;-33
2022/06/19 03:43:02;;;;;;;3.15;0.47;;;;;;;16.18;55.62;101088.66;5056008;27;96791;-33
2022/06/19 03:45:27;;;;;;;4.50;0.55;;;;;;;16.20;55.67;101056.59;5055372;27;114247;-33
2022/06/19 03:47:52;;;;;;;4.72;0.47;;;;;;;16.14;58.67;101036.13;5055635;27;114248;-33
2022/06/19 03:50:18;;;;;;;4.47;0.77;;;;;;;16.16;57.77;100982.22;5055947;27;96607;-33
2022/06/19 03:52:45;;;;;;;6.03;0.65;;;;;;;15.98;58.09;100880.75;5054550;27;96836;-33
2022/06/19 03:55:10;;;;;;;3.85;0.55;;;;;;;15.84;60.25;100794.50;5054253;27;100942;-33
2022/06/19 03:57:45;;;;;;;4.10;0.60;;;;;;;15.76;60.81;100763.38;5056141;27;97166;-33
2022/06/19 04:00:15;;;;;;;2.33;0.50;;;;;;;15.49;63.34;100753.75;5055798;27;96657;-33
2022/06/19 04:02:41;;;;;;;5.03;0.75;;;;;;;15.42;61.44;100739.75;5054245;27;96823;-33
2022/06/19 04:05:07;;;;;;;4.25;0.60;;;;;;;15.38;62.85;100756.53;5054842;27;99469;-33
2022/06/19 04:07:32;;;;;;;3.40;0.65;;;;;;;15.26;63.41;100762.00;5054055;27;100885;-33
2022/06/19 04:09:59;;;;;;;0.55;0.32;;;;;;;15.25;62.93;100790.28;5055977;27;96440;-33
2022/06/19 04:12:24;;;;;;;6.00;0.95;;;;;;;15.22;63.37;100868.81;5054509;27;96836;-33
2022/06/19 04:14:51;;;;;;;5.22;0.52;;;;;;;15.36;64.66;100996.84;5055666;27;97372;-33
2022/06/19 04:17:16;;;;;;;2.88;0.38;;;;;;;15.44;65.15;101070.78;5053904;27;100902;-32
2022/06/19 04:19:41;;;;;;;2.00;0.38;;;;;;;15.48;63.79;101098.72;5055603;27;96576;-33
2022/06/19 04:22:07;;;;;;;3.70;0.68;;;;;;;15.51;63.71;101112.13;5056261;27;96834;-33
2022/06/19 04:24:32;;;;;;;3.95;0.73;;;;;;;15.54;63.97;101125.56;5055101;27;99218;-33
2022/06/19 04:26:57;;;;;;;1.42;0.40;;;;;;;15.49;63.30;101125.03;5055238;27;99656;-33
2022/06/19 04:29:23;;;;;;;3.97;0.77;;;;;;;15.59;63.64;101147.91;5054976;27;96633;-33
2022/06/19 04:31:48;;;;;;;2.72;0.63;;;;;;;15.64;64.17;101148.44;5055821;27;96739;-33
2022/06/19 04:34:14;;;;;;;6.93;0.65;;;;;;;15.64;64.23;101156.63;5054964;27;99229;-33
2022/06/19 04:36:39;;;;;;;0.98;0.30;;;;;;;15.73;63.97;101156.91;5055180;27;97906;-33
2022/06/19 04:39:05;;;;;;;3.60;0.50;;;;;;;15.66;64.14;101138.25;5055244;27;96461;-33
2022/06/19 04:41:38;;;;;;;2.03;0.43;;;;;;;15.74;63.24;101140.41;5055190;27;96543;-33
2022/06/19 04:44:06;;;;;;;5.18;0.88;;;;;;;15.73;63.54;101149.63;5055408;27;97384;-33
2022/06/19 04:46:32;;;;;;;0.65;0.25;;;;;;;15.68;63.32;101128.09;5053862;27;100877;-33
2022/06/19 04:48:58;;;;;;;3.00;0.55;;;;;;;15.64;63.54;101137.50;5055323;27;96626;-33
2022/06/19 04:51:24;;;;;;;3.67;0.63;;;;;;;15.70;63.51;101130.72;5053844;27;96943;-33
2022/06/19 04:53:50;;;;;;;1.40;0.43;;;;;;;15.64;64.52;101109.34;5053009;27;101491;-33
2022/06/19 04:56:18;;;;;;;2.70;0.75;;;;;;;15.56;63.94;101128.16;5053508;27;100941;-33
2022/06/19 04:58:44;;;;;;;3.40;0.70;;;;;;;15.58;64.43;101148.91;5052979;27;96551;-33
2022/06/19 05:01:19;;;;;;;4.22;0.70;;;;;;;15.59;63.53;101150.66;5053308;27;96993;-33
2022/06/19 05:03:44;;;;;;;3.33;0.80;;;;;;;15.51;64.88;101142.16;5053338;27;103445;-33
2022/06/19 05:06:09;;;;;;;3.92;0.40;;;;;;;15.53;63.71;101145.66;5054755;27;97274;-33
2022/06/19 05:08:35;;;;;;;4.15;0.73;;;;;;;15.56;63.99;101160.94;5054882;27;96481;-33
2022/06/19 05:11:00;;;;;;;3.05;0.57;;;;;;;15.58;63.88;101192.59;5055065;27;96884;-33
2022/06/19 05:13:26;;;;;;;4.57;0.80;;;;;;;15.56;63.80;101200.03;5054817;27;98045;-33
2022/06/19 05:16:03;;;;;;;4.00;0.93;;;;;;;15.63;65.23;101173.97;5054554;27;97384;-33
2022/06/19 05:18:28;;;;;;;1.58;0.60;;;;;;;15.50;66.53;101124.06;5052972;27;96813;-33
2022/06/19 05:21:01;;;;;;;7.32;0.80;;;;;;;15.47;66.01;101130.63;5054969;27;96841;-33
2022/06/19 05:23:26;;;;;;;4.78;0.68;;;;;;;15.45;64.90;101149.00;5052984;27;101308;-33
2022/06/19 05:26:07;;;;;;;3.40;0.93;;;;;;;15.41;66.46;101133.81;5054690;27;97812;-33
2022/06/19 05:28:33;;;;;;;1.13;0.43;;;;;;;15.32;66.00;101074.47;5053514;27;96738;-33
2022/06/19 05:30:59;;;;;;;10.05;0.65;;;;;;;15.25;65.98;101095.94;5053240;27;96879;-33
2022/06/19 05:33:26;;;;;;;6.43;0.75;;;;;;;15.34;64.73;101150.81;5052874;27;100961;-33
2022/06/19 05:35:58;;;;;;;3.08;0.65;;;;;;;15.14;68.08;101191.41;5053275;27;100846;-33
2022/06/19 05:38:24;;;;;;;1.38;0.73;;;;;;;15.09;66.46;101158.13;5053152;27;96493;-33
2022/06/19 05:40:55;;;;;;;0.35;0.20;;;;;;;14.93;67.61;101143.91;5052916;27;96773;-33
2022/06/19 05:43:21;;;;;;;2.78;0.73;;;;;;;14.99;67.78;101181.63;5052323;27;100901;-33
2022/06/19 05:45:50;;;;;;;3.55;0.63;;;;;;;14.98;67.62;101205.31;5052785;27;100453;-33
2022/06/19 05:48:16;;;;;;;3.90;0.60;;;;;;;15.03;66.67;101232.25;5053050;27;96755;-33
2022/06/19 05:50:41;;;;;;;2.28;0.75;;;;;;;15.00;66.23;101247.00;5054330;27;96901;-33
2022/06/19 05:53:07;;;;;;;3.30;0.57;;;;;;;15.06;66.71;101272.94;5054250;27;97491;-33
2022/06/19 05:55:32;;;;;;;9.25;1.10;;;;;;;15.05;66.67;101299.38;5054112;27;97809;-33
2022/06/19 05:57:57;;;;;;;2.25;0.68;;;;;;;15.16;67.36;101322.25;5054249;27;101036;-33
2022/06/19 06:00:23;;;;;;;4.30;0.85;;;;;;;15.17;66.87;101330.34;5054797;27;96765;-33
2022/06/19 06:02:48;;;;;;;1.55;0.45;;;;;;;15.20;66.51;101334.69;5053748;27;97922;-33
2022/06/19 06:05:14;;;;;;;3.70;0.43;;;;;;;15.16;66.52;101342.25;5054194;27;97877;-33
2022/06/19 06:07:39;;;;;;;3.72;0.85;;;;;;;15.13;66.19;101341.59;5053888;27;96590;-33
2022/06/19 06:10:05;;;;;;;3.20;0.68;;;;;;;14.94;66.92;101336.59;5054431;27;96915;-33
2022/06/19 06:12:31;;;;;;;5.25;0.63;;;;;;;14.91;67.50;101358.63;5057509;27;97359;-33
2022/06/19 06:14:56;;;;;;;1.30;0.50;;;;;;;14.91;67.83;101380.47;5055844;27;101398;-33
2022/06/19 06:17:23;;;;;;;1.63;0.40;;;;;;;14.96;67.26;101373.69;5056954;27;103458;-33
2022/06/19 06:19:48;;;;;;;0.75;0.38;;;;;;;14.98;67.05;101370.84;5056194;27;96885;-33
2022/06/19 06:22:29;;;;;;;4.20;0.95;;;;;;;15.00;67.51;101377.09;5057328;27;98403;-33
2022/06/19 06:24:54;;;;;;;4.68;0.70;;;;;;;14.98;67.54;101384.50;5057677;27;97812;-33
2022/06/19 06:27:20;;;;;;;1.88;0.70;;;;;;;15.02;66.33;101391.50;5057255;27;96488;-33
2022/06/19 06:29:46;;;;;;;0.65;0.55;;;;;;;14.99;66.58;101400.78;5057308;27;96863;-33
2022/06/19 06:32:11;;;;;;;3.20;0.63;;;;;;;15.00;66.32;101393.44;5056242;27;99070;-33
2022/06/19 06:34:36;;;;;;;6.70;1.15;;;;;;;15.09;66.10;101403.72;5056732;27;106559;-33
2022/06/19 06:37:02;;;;;;;2.22;0.28;;;;;;;15.06;65.91;101382.97;5056901;27;99995;-33
2022/06/19 06:39:27;;;;;;;2.55;0.70;;;;;;;15.14;66.07;101390.59;5057461;27;96769;-33
2022/06/19 06:41:52;;;;;;;5.95;0.60;;;;;;;15.13;65.86;101383.38;5056575;27;99272;-33
2022/06/19 06:44:18;;;;;;;4.13;0.68;;;;;;;15.12;65.98;101378.06;5056998;27;101431;-33
2022/06/19 06:46:43;;;;;;;2.60;0.40;;;;;;;15.13;66.26;101383.38;5057242;27;96591;-33
2022/06/19 06:49:09;;;;;;;6.32;0.55;;;;;;;15.07;66.20;101364.75;5057296;27;96820;-33
2022/06/19 06:51:34;;;;;;;5.97;1.20;;;;;;;15.06;65.23;101366.59;5056836;27;98551;-33
2022/06/19 06:54:00;;;;;;;3.83;0.82;;;;;;;15.11;65.89;101382.66;5056601;27;99289;-33
2022/06/19 06:56:30;;;;;;;4.93;0.98;;;;;;;15.11;66.08;101395.41;5056574;27;96615;-33
2022/06/19 06:59:14;;;;;;;3.45;0.95;;;;;;;15.11;66.52;101404.47;5056965;27;96660;-33
2022/06/19 07:01:40;;;;;;;1.90;0.43;;;;;;;15.10;66.14;101402.72;5056329;27;97974;-33
2022/06/19 07:04:06;;;;;;;6.85;0.80;;;;;;;15.05;66.39;101399.44;5055259;27;100276;-33
2022/06/19 07:06:32;;;;;;;4.88;0.82;;;;;;;14.99;66.28;101406.22;5055370;27;96576;-33
2022/06/19 07:08:59;;;;;;;7.30;1.10;;;;;;;14.99;66.41;101417.13;5055494;27;96919;-33
2022/06/19 07:11:42;;;;;;;7.22;0.90;;;;;;;15.05;66.10;101429.47;5055124;27;100942;-33
2022/06/19 07:14:08;;;;;;;6.65;0.73;;;;;;;15.00;66.17;101446.16;5055424;27;101106;-33
2022/06/19 07:16:33;;;;;;;1.23;0.38;;;;;;;15.01;65.93;101466.13;5056825;27;96537;-33
2022/06/19 07:18:59;;;;;;;5.38;1.13;;;;;;;14.99;66.50;101473.53;5056638;27;96761;-33
2022/06/19 07:21:24;;;;;;;5.18;1.25;;;;;;;14.97;66.66;101480.94;5055327;27;98851;-33
2022/06/19 07:23:49;;;;;;;3.42;0.82;;;;;;;14.97;66.86;101475.50;5056358;27;97917;-33
2022/06/19 07:26:17;;;;;;;8.70;0.65;;;;;;;14.90;66.49;101460.53;5056767;27;96657;-33
2022/06/19 07:28:43;;;;;;;3.28;0.47;;;;;;;14.96;66.37;101460.13;5055082;27;96910;-33
2022/06/19 07:31:10;;;;;;;3.05;0.63;;;;;;;14.96;66.42;101451.94;5056181;27;97997;-33
2022/06/19 07:33:36;;;;;;;3.22;0.52;;;;;;;14.97;66.70;101445.47;5054091;27;100924;-33
2022/06/19 07:36:03;;;;;;;3.28;0.60;;;;;;;15.01;65.85;101427.91;5055036;27;96702;-33
2022/06/19 07:38:28;;;;;;;4.82;0.70;;;;;;;14.98;66.54;101401.72;5055241;27;96868;-33
2022/06/19 07:40:54;;;;;;;4.57;0.55;;;;;;;14.96;67.65;101367.38;5056047;27;97850;-33
2022/06/19 07:43:19;;;;;;;0.90;0.30;;;;;;;14.90;67.72;101337.78;5055416;27;110939;-33
2022/06/19 07:45:44;;;;;;;1.10;0.40;;;;;;;14.84;67.18;101312.69;5055610;27;96459;-33
2022/06/19 07:50:55;;;;;;;1.95;0.82;;;;;;;14.67;68.38;101299.41;5056301;27;97054;-33
2022/06/19 07:53:21;;;;;;;4.90;0.75;;;;;;;14.74;69.95;101278.91;5055881;27;97899;-33
2022/06/19 07:55:46;;;;;;;2.90;0.82;;;;;;;14.67;69.73;101261.25;5056656;27;96650;-33
2022/06/19 07:58:11;;;;;;;7.70;0.45;;;;;;;14.74;69.25;101278.91;5056149;27;96858;-33
2022/06/19 08:00:37;;;;;;;3.00;0.57;;;;;;;14.78;70.26;101283.16;5055415;27;97950;-32
2022/06/19 08:03:04;;;;;;;3.00;0.47;;;;;;;14.78;71.15;101294.06;5054639;27;100662;-33
2022/06/19 08:05:32;;;;;;;3.88;0.73;;;;;;;14.77;68.43;101296.91;5054447;27;96662;-33
2022/06/19 08:07:59;;;;;;;3.67;0.40;;;;;;;14.84;68.62;101314.56;5054412;27;96857;-33
2022/06/19 08:10:27;;;;;;;5.00;1.42;;;;;;;14.89;70.37;101323.28;5053559;27;100828;-33
2022/06/19 08:12:54;;;;;;;4.80;0.63;;;;;;;14.92;69.58;101327.63;5054084;27;100919;-33
2022/06/19 08:15:20;;;;;;;3.42;0.70;;;;;;;14.98;69.05;101347.16;5055603;27;96585;-33
2022/06/19 08:17:45;;;;;;;4.43;0.77;;;;;;;14.99;69.61;101358.94;5055860;27;96746;-32
2022/06/19 08:20:12;;;;;;;3.28;0.47;;;;;;;15.04;69.04;101393.13;5055332;27;97877;-33
2022/06/19 08:22:38;;;;;;;4.15;1.08;;;;;;;15.11;69.12;101403.59;5055212;27;99077;-33
2022/06/19 08:25:05;;;;;;;1.35;0.65;;;;;;;15.08;68.81;101388.31;5054322;27;96510;-33
2022/06/19 08:27:31;;;;;;;6.93;1.05;;;;;;;15.07;69.20;101378.38;5054482;27;96837;-33
2022/06/19 08:29:57;;;;;;;1.52;0.45;;;;;;;15.10;69.83;101375.44;5055318;27;97890;-33
2022/06/19 08:32:22;;;;;;;3.83;0.40;;;;;;;15.11;68.38;101374.47;5054430;27;99115;-33
2022/06/19 08:34:47;;;;;;;3.38;0.80;;;;;;;15.15;68.27;101362.31;5052518;27;101812;-33
2022/06/19 08:37:13;;;;;;;3.45;0.55;;;;;;;15.18;67.74;101348.47;5055620;27;96507;-32
2022/06/19 08:39:39;;;;;;;7.85;1.13;;;;;;;15.24;69.11;101348.00;5055159;27;97742;-32
2022/06/19 08:42:30;;;;;;;2.35;0.90;;;;;;;15.25;68.48;101338.84;5054905;27;96744;-33
2022/06/19 08:45:14;;;;;;;7.85;0.93;;;;;;;15.29;68.22;101334.03;5051856;27;96856;-33
2022/06/19 08:47:45;;;;;;;3.55;0.70;;;;;;;15.34;69.09;101328.22;5055593;27;96714;-33
2022/06/19 08:50:20;;;;;;;2.07;0.50;;;;;;;15.37;69.06;101341.63;5055175;27;98026;-32
2022/06/19 08:53:12;;;;;;;9.52;0.60;;;;;;;15.40;68.55;101328.66;5053990;27;101064;-32
2022/06/19 08:56:17;;;;;;;3.88;0.93;;;;;;;15.50;68.41;101328.84;5053822;27;96601;-32
2022/06/19 08:58:58;;;;;;;3.38;0.68;;;;;;;15.46;67.26;101314.53;5041116;27;96811;-33
2022/06/19 09:01:40;;;;;;;5.40;0.85;;;;;;;15.42;68.01;101321.22;5052252;27;101193;-32
2022/06/19 09:07:34;;;;;;;4.82;0.40;;;;;;;15.55;68.43;101315.72;5055566;27;96511;-33
2022/06/19 09:10:16;;;;;;;1.75;0.75;;;;;;;15.53;68.31;101304.03;5055480;27;96546;-33
2022/06/19 09:12:55;;;;;;;4.47;0.63;;;;;;;15.56;69.09;101292.84;5053421;27;100961;-33
2022/06/19 09:15:33;;;;;;;4.03;0.75;;;;;;;15.59;69.02;101279.00;5053206;27;100714;-33
2022/06/19 09:18:03;;;;;;;3.60;0.73;;;;;;;15.76;68.26;101282.34;5055493;27;96578;-33
2022/06/19 09:20:43;;;;;;;1.45;0.55;;;;;;;15.81;68.30;101274.66;5053936;27;97334;-33
2022/06/19 09:23:18;;;;;;;3.90;0.90;;;;;;;15.94;67.79;101259.03;5053151;27;101042;-33
2022/06/19 09:25:44;;;;;;;3.85;0.65;;;;;;;16.08;67.48;101241.56;5053192;27;100867;-33
2022/06/19 09:28:33;;;;;;;4.18;0.73;;;;;;;16.20;67.23;101250.66;5052619;27;96612;-33
2022/06/19 09:31:11;;;;;;;2.40;1.00;;;;;;;16.27;66.77;101246.47;5053461;27;96722;-33
2022/06/19 09:33:40;;;;;;;3.90;1.48;;;;;;;16.49;66.60;101260.19;5052732;27;101134;-33
2022/06/19 09:36:12;;;;;;;6.07;1.63;;;;;;;16.52;65.97;101275.47;5053007;27;100775;-33
2022/06/19 09:38:44;;;;;;;7.10;2.45;;;;;;;16.37;66.60;101263.00;5053090;27;96640;-33
2022/06/19 09:41:19;;;;;;;9.30;1.55;;;;;;;16.39;66.08;101261.88;5053219;27;96810;-33
2022/06/19 09:44:01;;;;;;;9.63;1.80;;;;;;;16.41;66.36;101276.31;5052652;27;100798;-33
2022/06/19 09:46:35;;;;;;;2.97;1.27;;;;;;;16.37;65.78;101269.34;5056867;27;100754;-33
2022/06/19 09:49:15;;;;;;;3.15;1.17;;;;;;;16.46;66.14;101279.53;5056709;27;96612;-33
2022/06/19 09:52:07;;;;;;;3.97;1.15;;;;;;;16.42;66.24;101296.31;5056688;27;96866;-33
2022/06/19 09:54:42;;;;;;;2.58;0.90;;;;;;;16.33;66.59;101301.53;5055658;27;97809;-33
2022/06/19 09:57:18;;;;;;;8.90;1.25;;;;;;;16.24;66.05;101306.84;5056094;27;100735;-33
2022/06/19 10:00:19;;;;;;;5.78;1.20;;;;;;;16.20;67.15;101308.94;5056467;27;96617;-33
2022/06/19 10:03:20;;;;;;;9.10;1.95;;;;;;;16.20;66.65;101332.69;5056130;27;96725;-33
2022/06/19 10:06:03;;;;;;;8.63;2.80;;;;;;;16.14;67.15;101323.09;5053380;27;101501;-33
2022/06/19 10:08:36;;;;;;;6.53;2.22;;;;;;;16.17;66.41;101325.59;5057692;27;97791;-33
2022/06/19 10:11:13;;;;;;;6.05;2.55;;;;;;;16.18;66.32;101321.84;5056485;27;96687;-33
2022/06/19 10:13:52;;;;;;;6.50;1.90;;;;;;;16.22;66.18;101323.38;5056614;27;96671;-33
2022/06/19 10:17:06;;;;;;;5.63;1.90;;;;;;;16.20;67.06;101330.81;5055893;27;100953;-33
2022/06/19 10:19:53;;;;;;;5.63;1.48;;;;;;;16.23;66.32;101336.06;5037735;27;100995;-33
2022/06/19 10:22:42;;;;;;;3.97;1.55;;;;;;;16.21;66.22;101342.59;5055748;27;96678;-33
2022/06/19 10:25:20;;;;;;;6.75;1.33;;;;;;;16.16;66.19;101333.88;5056010;27;96921;-33
2022/06/19 10:28:15;;;;;;;6.25;1.70;;;;;;;16.22;67.08;101349.84;5055732;27;101384;-33
2022/06/19 10:30:54;;;;;;;2.95;1.08;;;;;;;16.13;66.69;101322.19;5057292;27;97856;-33
2022/06/19 10:33:31;;;;;;;7.20;1.33;;;;;;;16.24;66.54;101336.94;5055877;27;96706;-33
2022/06/19 10:36:30;;;;;;;4.80;1.50;;;;;;;16.25;67.10;101349.59;5057374;27;96728;-33
2022/06/19 10:39:07;;;;;;;4.70;1.30;;;;;;;16.20;66.90;101349.06;5056736;27;97432;-33
2022/06/19 10:45:00;;;;;;;1.77;0.70;;;;;;;16.34;67.20;101357.06;5056472;27;96808;-32
2022/06/19 10:47:44;;;;;;;3.63;1.83;;;;;;;16.64;65.81;101331.06;5055735;27;96923;-32
2022/06/19 10:50:23;;;;;;;1.27;0.90;;;;;;;16.80;65.05;101295.16;5056075;27;99595;-32
2022/06/19 10:53:13;;;;;;;1.92;0.90;;;;;;;17.21;64.23;101247.97;5056556;27;99213;-32
2022/06/19 10:55:57;;;;;;;8.95;2.00;;;;;;;17.73;62.56;101253.66;5054899;27;96745;-32
2022/06/19 10:58:25;;;;;;;2.85;0.88;;;;;;;18.11;61.67;101261.34;5056912;27;96602;-32
2022/06/19 11:00:55;;;;;;;2.28;1.20;;;;;;;18.27;61.06;101269.13;5054594;27;101159;-31
2022/06/19 11:06:34;;;;;;;2.78;1.42;;;;;;;18.51;60.75;101249.63;5054168;27;96656;-32
2022/06/19 11:09:15;;;;;;;1.40;1.10;;;;;;;18.45;60.92;101269.38;5055579;27;96698;-32
2022/06/19 11:11:44;;;;;;;2.67;1.48;;;;;;;18.53;61.03;101287.91;5056441;27;99331;-32
2022/06/19 11:14:29;;;;;;;2.58;1.27;;;;;;;18.64;60.18;101291.44;5056305;27;97318;-33
2022/06/19 11:16:56;;;;;;;5.45;1.50;;;;;;;18.75;60.22;101301.44;5066162;27;96905;-34
2022/06/19 11:19:47;;;;;;;6.10;1.40;;;;;;;18.74;59.74;101307.97;5060354;27;97432;-33
2022/06/19 11:22:33;;;;;;;3.58;1.30;;;;;;;18.68;59.89;101311.22;5053402;27;101163;-33
2022/06/19 11:25:20;;;;;;;3.65;1.20;;;;;;;18.61;60.33;101326.50;5055650;27;99692;-32
2022/06/19 11:27:57;;;;;;;2.20;1.27;;;;;;;18.53;60.49;101331.81;5056625;27;96657;-32
2022/06/19 11:30:30;;;;;;;4.18;1.35;;;;;;;18.32;60.17;101334.53;5056313;27;96708;-32
2022/06/19 11:32:56;;;;;;;8.10;1.45;;;;;;;18.39;60.62;101363.16;5055883;27;98043;-33
2022/06/19 11:35:23;;;;;;;3.40;1.65;;;;;;;18.52;60.34;101360.22;5054438;27;101096;-33
2022/06/19 11:37:55;;;;;;;4.70;1.10;;;;;;;18.44;60.43;101375.47;5054240;27;97178;-32
2022/06/19 11:40:33;;;;;;;4.45;1.40;;;;;;;18.28;59.96;101404.34;5054692;27;96724;-32
2022/06/19 11:43:00;;;;;;;1.30;0.80;;;;;;;18.18;60.49;101416.09;5053855;27;100614;-32
2022/06/19 11:45:35;;;;;;;11.50;1.40;;;;;;;18.07;60.76;101424.38;5054349;27;100867;-33
2022/06/19 11:48:02;;;;;;;3.10;0.95;;;;;;;18.14;60.61;101433.84;5054770;27;96548;-32
2022/06/19 11:50:33;;;;;;;2.00;1.20;;;;;;;18.10;60.38;101431.50;5056341;27;96663;-32
2022/06/19 11:53:14;;;;;;;3.17;1.30;;;;;;;18.02;60.70;101432.13;5055988;27;97985;-33